Time;durP1;ratioP1;P1;durP2;ratioP2;P2;SDS_P1;SDS_P2;PMS_P1;PMS_P2;Temp;Humidity;BMP_temperature;BMP_pressure;BME280_temperature;BME280_humidity;BME280_pressure;Samples;Min_cycle;Max_cycle;Signal;HPM_P1;HPM_P2
2022/11/07 00:01:49;;;;;;;7.22;2.83;;;15.40;99.90;;;;;;5062126;28;20056;-74
2022/11/07 00:04:16;;;;;;;5.95;2.17;;;15.40;99.90;;;;;;5053803;28;20336;-73
2022/11/07 00:06:45;;;;;;;3.30;1.65;;;15.30;99.90;;;;;;5060338;28;20139;-74
2022/11/07 00:09:12;;;;;;;4.13;2.10;;;15.30;99.90;;;;;;5046888;28;20131;-74
2022/11/07 00:11:40;;;;;;;10.18;2.97;;;15.20;99.90;;;;;;5030717;28;20412;-74
2022/11/07 00:14:07;;;;;;;8.13;2.88;;;15.20;99.90;;;;;;5063375;28;20067;-76
2022/11/07 00:16:35;;;;;;;16.42;3.10;;;15.20;99.90;;;;;;5059838;28;20131;-74
2022/11/07 00:19:03;;;;;;;8.27;2.70;;;15.20;99.90;;;;;;5028615;28;20483;-74
2022/11/07 00:21:30;;;;;;;6.03;2.28;;;15.20;99.90;;;;;;5030088;28;20135;-74
2022/11/07 00:23:58;;;;;;;5.40;3.00;;;15.20;99.90;;;;;;5069492;28;20040;-75
2022/11/07 00:26:26;;;;;;;7.30;3.10;;;15.10;99.90;;;;;;5045787;28;20789;-74
2022/11/07 00:28:55;;;;;;;7.10;3.33;;;15.10;99.90;;;;;;5032512;28;20130;-77
2022/11/07 00:31:22;;;;;;;6.70;2.97;;;15.10;99.90;;;;;;5045771;28;20040;-74
2022/11/07 00:33:50;;;;;;;6.75;2.78;;;15.00;99.90;;;;;;5061981;28;20964;-74
2022/11/07 00:36:24;;;;;;;34.10;3.05;;;15.00;99.90;;;;;;5064427;28;20333;-74
2022/11/07 00:38:51;;;;;;;6.90;2.80;;;15.00;99.90;;;;;;5039871;28;20075;-74
2022/11/07 00:41:20;;;;;;;12.32;2.80;;;15.00;99.90;;;;;;5046999;28;20542;-75
2022/11/07 00:43:47;;;;;;;7.90;2.40;;;15.00;99.90;;;;;;5031029;28;20122;-74
2022/11/07 00:46:15;;;;;;;7.10;2.38;;;14.90;99.90;;;;;;5063185;28;20047;-73
2022/11/07 00:48:43;;;;;;;7.30;2.30;;;14.90;99.90;;;;;;5063480;28;20048;-74
2022/11/07 00:51:17;;;;;;;6.63;2.70;;;14.90;99.90;;;;;;5068473;28;20048;-75
2022/11/07 00:53:46;;;;;;;6.53;2.65;;;14.80;99.90;;;;;;5046896;28;20079;-74
2022/11/07 00:56:21;;;;;;;6.68;2.75;;;14.80;99.90;;;;;;5066960;28;20037;-74
2022/11/07 00:58:52;;;;;;;6.72;2.80;;;14.80;99.90;;;;;;5047853;28;20050;-75
2022/11/07 01:01:23;;;;;;;6.80;2.72;;;14.80;99.90;;;;;;5051541;28;20512;-74
2022/11/07 01:06:39;;;;;;;;;;;14.80;99.90;;;;;;5046992;28;20052;-75
2022/11/07 01:09:10;;;;;;;7.80;2.40;;;14.80;99.90;;;;;;5042325;28;19924;-75
2022/11/07 01:11:39;;;;;;;6.38;2.70;;;14.80;99.90;;;;;;5037791;28;20382;-75
2022/11/07 01:14:08;;;;;;;4.18;2.72;;;14.80;99.90;;;;;;5043540;28;20102;-76
2022/11/07 01:16:37;;;;;;;6.00;2.25;;;14.80;99.90;;;;;;5050849;28;20159;-75
2022/11/07 01:19:05;;;;;;;4.20;2.47;;;14.80;99.90;;;;;;5062522;28;20443;-75
2022/11/07 01:21:33;;;;;;;8.10;3.10;;;14.80;99.90;;;;;;5066237;28;20044;-76
2022/11/07 01:24:02;;;;;;;13.55;3.50;;;14.70;99.90;;;;;;5049868;28;20036;-74
2022/11/07 01:26:29;;;;;;;4.00;2.30;;;14.70;99.90;;;;;;5066372;28;20036;-74
2022/11/07 01:28:57;;;;;;;4.70;2.58;;;14.70;99.90;;;;;;5033850;28;20063;-75
2022/11/07 01:31:24;;;;;;;5.03;2.35;;;14.70;99.90;;;;;;5067297;28;20147;-75
2022/11/07 01:33:52;;;;;;;9.02;3.15;;;14.80;99.90;;;;;;5065864;28;20451;-75
2022/11/07 01:36:19;;;;;;;8.55;3.10;;;14.80;99.90;;;;;;5067804;28;20154;-74
2022/11/07 01:38:47;;;;;;;5.55;2.58;;;14.80;99.90;;;;;;5034361;28;20514;-75
2022/11/07 01:41:20;;;;;;;4.97;2.38;;;14.90;99.90;;;;;;5066043;28;20057;-75
2022/11/07 01:43:59;;;;;;;4.53;2.28;;;14.90;99.90;;;;;;5039978;28;20525;-75
2022/11/07 01:46:33;;;;;;;10.18;2.47;;;14.90;99.90;;;;;;5065019;28;20096;-75
2022/11/07 01:49:03;;;;;;;8.98;3.55;;;14.90;99.90;;;;;;5050411;28;20036;-75
2022/11/07 01:51:36;;;;;;;5.78;2.15;;;14.90;99.90;;;;;;5033584;28;20149;-76
2022/11/07 01:54:05;;;;;;;6.03;2.28;;;14.90;99.90;;;;;;5041763;28;20094;-76
2022/11/07 01:56:35;;;;;;;22.52;4.45;;;14.90;99.90;;;;;;5048633;28;20051;-77
2022/11/07 01:59:04;;;;;;;6.75;2.85;;;14.90;99.90;;;;;;5050252;28;20392;-75
2022/11/07 02:01:32;;;;;;;7.57;3.30;;;14.90;99.90;;;;;;5041424;28;20123;-75
2022/11/07 02:04:01;;;;;;;5.13;2.58;;;14.90;99.90;;;;;;5060619;28;20044;-76
2022/11/07 02:07:02;;;;;;;8.65;2.85;;;14.90;99.90;;;;;;5037961;28;20053;-76
2022/11/07 02:09:30;;;;;;;5.32;2.60;;;14.80;99.90;;;;;;5043425;28;20142;-76
2022/11/07 02:11:59;;;;;;;7.28;2.83;;;14.80;99.90;;;;;;5066467;28;20378;-76
2022/11/07 02:14:28;;;;;;;6.18;3.30;;;14.80;99.90;;;;;;5065248;28;20044;-76
2022/11/07 02:16:56;;;;;;;10.98;3.63;;;14.80;99.90;;;;;;5046749;28;20708;-76
2022/11/07 02:19:39;;;;;;;11.93;3.83;;;14.80;99.90;;;;;;5063162;28;20549;-76
2022/11/07 02:22:36;;;;;;;4.90;2.53;;;14.80;99.90;;;;;;5047462;28;20079;-76
2022/11/07 02:25:11;;;;;;;8.60;2.80;;;14.80;99.90;;;;;;5051785;28;20065;-76
2022/11/07 02:27:40;;;;;;;5.53;2.30;;;14.80;99.90;;;;;;5033941;28;20050;-76
2022/11/07 02:30:11;;;;;;;5.45;2.83;;;14.80;99.90;;;;;;5049207;28;20162;-76
2022/11/07 02:32:39;;;;;;;5.35;2.42;;;14.80;99.90;;;;;;5049972;28;20048;-76
2022/11/07 02:35:32;;;;;;;15.73;2.90;;;14.80;99.90;;;;;;5068406;28;20159;-76
2022/11/07 02:38:06;;;;;;;4.72;2.20;;;14.90;99.90;;;;;;5067099;28;20040;-75
2022/11/07 02:40:34;;;;;;;6.65;3.47;;;14.80;99.90;;;;;;5050178;28;20060;-76
2022/11/07 02:43:03;;;;;;;6.40;2.70;;;14.80;99.90;;;;;;5067531;28;20140;-76
2022/11/07 02:45:34;;;;;;;4.57;2.20;;;14.80;99.90;;;;;;5049441;28;20044;-76
2022/11/07 02:48:03;;;;;;;8.32;3.55;;;14.80;99.90;;;;;;5049240;28;20044;-76
2022/11/07 02:50:31;;;;;;;8.05;2.55;;;14.80;99.90;;;;;;5033362;28;20080;-76
2022/11/07 02:52:58;;;;;;;6.22;2.60;;;14.80;99.90;;;;;;5066261;28;20175;-77
2022/11/07 02:55:26;;;;;;;4.82;2.72;;;14.80;99.90;;;;;;5066386;28;20047;-76
2022/11/07 02:57:54;;;;;;;7.93;3.53;;;14.80;99.90;;;;;;5067846;28;20037;-75
2022/11/07 03:00:21;;;;;;;9.00;2.60;;;14.80;99.90;;;;;;5067500;28;20498;-76
2022/11/07 03:02:49;;;;;;;6.68;2.97;;;14.70;99.90;;;;;;5050835;28;20414;-76
2022/11/07 03:05:18;;;;;;;5.07;2.72;;;14.70;99.90;;;;;;5067479;28;20056;-76
2022/11/07 03:07:47;;;;;;;7.38;2.10;;;14.70;99.90;;;;;;5034148;28;20044;-76
2022/11/07 03:10:16;;;;;;;5.43;2.65;;;14.70;99.90;;;;;;5066953;28;20074;-75
2022/11/07 03:12:43;;;;;;;8.07;2.90;;;14.70;99.90;;;;;;5034186;28;20487;-76
2022/11/07 03:15:12;;;;;;;4.68;2.10;;;14.70;99.90;;;;;;5050933;28;20410;-75
2022/11/07 03:17:40;;;;;;;5.43;2.95;;;14.70;99.90;;;;;;5050931;28;20037;-75
2022/11/07 03:20:09;;;;;;;5.30;3.38;;;14.70;99.90;;;;;;5067096;28;20032;-76
2022/11/07 03:22:37;;;;;;;5.13;2.13;;;14.60;99.90;;;;;;5049482;28;20067;-76
2022/11/07 03:25:05;;;;;;;4.50;2.17;;;14.60;99.90;;;;;;5030721;28;20070;-76
2022/11/07 03:27:33;;;;;;;10.93;2.85;;;14.50;99.90;;;;;;5030252;28;20118;-76
2022/11/07 03:30:00;;;;;;;5.85;2.72;;;14.50;99.90;;;;;;5030764;28;20166;-76
2022/11/07 03:32:28;;;;;;;8.63;2.28;;;14.50;99.90;;;;;;5014315;28;20407;-76
2022/11/07 03:34:56;;;;;;;5.38;2.55;;;14.50;99.90;;;;;;5046890;28;20521;-77
2022/11/07 03:37:26;;;;;;;8.30;3.10;;;14.60;99.90;;;;;;5031033;28;20169;-76
2022/11/07 03:39:53;;;;;;;5.65;2.78;;;14.60;99.90;;;;;;5046992;28;20081;-76
2022/11/07 03:42:21;;;;;;;7.18;2.70;;;14.50;99.90;;;;;;5014275;28;20049;-76
2022/11/07 03:44:50;;;;;;;6.55;3.15;;;14.50;99.90;;;;;;5030532;28;20130;-76
2022/11/07 03:47:17;;;;;;;5.57;2.60;;;14.60;99.90;;;;;;5046844;28;20044;-76
2022/11/07 03:49:45;;;;;;;11.52;3.17;;;14.60;99.90;;;;;;5030637;28;20076;-76
2022/11/07 03:52:15;;;;;;;6.18;2.70;;;14.60;99.90;;;;;;5047989;28;20048;-76
2022/11/07 03:54:42;;;;;;;7.65;3.53;;;14.60;99.90;;;;;;5046915;28;20670;-75
2022/11/07 03:57:10;;;;;;;11.35;2.97;;;14.60;99.90;;;;;;5048040;28;20045;-76
2022/11/07 03:59:37;;;;;;;6.75;2.33;;;14.60;99.90;;;;;;5030390;28;20537;-76
2022/11/07 04:02:05;;;;;;;9.02;3.17;;;14.60;99.90;;;;;;5045827;28;20048;-75
2022/11/07 04:04:33;;;;;;;10.50;2.45;;;14.60;99.90;;;;;;5033438;28;20433;-76
2022/11/07 04:07:00;;;;;;;8.20;2.97;;;14.60;99.90;;;;;;5033290;28;20051;-76
2022/11/07 04:09:28;;;;;;;4.00;2.63;;;14.50;99.90;;;;;;5049796;28;20044;-76
2022/11/07 04:17:28;;;;;;;6.55;2.95;;;14.50;99.90;;;;;;5050153;28;20065;-76
2022/11/07 04:19:56;;;;;;;7.22;2.30;;;14.60;99.90;;;;;;5042522;28;20049;-75
2022/11/07 04:22:25;;;;;;;8.55;3.70;;;14.50;99.90;;;;;;5030173;28;20065;-77
2022/11/07 04:24:52;;;;;;;9.23;3.28;;;14.60;99.90;;;;;;5048416;28;20448;-75
2022/11/07 04:30:18;;;;;;;8.52;3.45;;;14.60;99.90;;;;;;5050496;28;20526;-76
2022/11/07 04:32:51;;;;;;;6.25;2.63;;;14.60;99.90;;;;;;5017363;28;20114;-75
2022/11/07 04:35:21;;;;;;;7.03;2.70;;;14.60;99.90;;;;;;5050535;28;20052;-76
2022/11/07 04:37:48;;;;;;;9.77;3.45;;;14.70;99.90;;;;;;5051816;28;20388;-76
2022/11/07 04:40:16;;;;;;;5.40;2.10;;;14.70;99.90;;;;;;5049671;28;20114;-76
2022/11/07 04:42:45;;;;;;;6.63;3.13;;;14.70;99.90;;;;;;5033568;28;20063;-76
2022/11/07 04:45:12;;;;;;;6.88;2.70;;;14.70;99.90;;;;;;5034049;28;20057;-76
2022/11/07 04:47:40;;;;;;;6.40;2.45;;;14.70;99.90;;;;;;5049972;28;20128;-76
2022/11/07 04:50:13;;;;;;;9.57;2.45;;;14.70;99.90;;;;;;5016928;28;20047;-76
2022/11/07 04:52:41;;;;;;;5.95;2.35;;;14.70;99.90;;;;;;5033786;28;20052;-76
2022/11/07 04:55:19;;;;;;;7.00;2.95;;;14.70;99.90;;;;;;5051508;28;20377;-76
2022/11/07 04:57:47;;;;;;;5.65;2.88;;;14.70;99.90;;;;;;5033292;28;20056;-75
2022/11/07 05:00:16;;;;;;;11.68;3.63;;;14.70;99.90;;;;;;5016806;28;20045;-76
2022/11/07 05:02:44;;;;;;;5.72;2.60;;;14.70;99.90;;;;;;5016783;28;20163;-76
2022/11/07 05:05:12;;;;;;;6.30;2.40;;;14.70;99.90;;;;;;5049753;28;20037;-76
2022/11/07 05:07:40;;;;;;;6.30;4.10;;;14.80;99.90;;;;;;5033149;28;20045;-77
2022/11/07 05:10:15;;;;;;;5.53;2.45;;;14.70;99.90;;;;;;5032977;28;20067;-75
2022/11/07 05:12:43;;;;;;;6.53;2.90;;;14.70;99.90;;;;;;5039197;28;20044;-76
2022/11/07 05:15:10;;;;;;;4.60;2.50;;;14.60;99.90;;;;;;5069047;28;20641;-76
2022/11/07 05:17:38;;;;;;;7.55;2.72;;;14.60;99.90;;;;;;5052714;28;20078;-76
2022/11/07 05:20:06;;;;;;;4.95;2.38;;;14.60;99.90;;;;;;5047499;28;20165;-76
2022/11/07 05:25:22;;;;;;;7.10;2.63;;;14.50;99.90;;;;;;5069399;28;20056;-76
2022/11/07 05:27:54;;;;;;;6.88;2.55;;;14.60;99.90;;;;;;5052949;28;20049;-76
2022/11/07 05:30:22;;;;;;;7.63;2.90;;;14.60;99.90;;;;;;5034849;28;20048;-77
2022/11/07 05:32:49;;;;;;;6.40;2.53;;;14.60;99.90;;;;;;5052725;28;20041;-76
2022/11/07 05:35:16;;;;;;;4.72;2.47;;;14.60;99.90;;;;;;5035867;28;20057;-76
2022/11/07 05:37:44;;;;;;;7.35;3.35;;;14.60;99.90;;;;;;5052088;28;20495;-76
2022/11/07 05:40:11;;;;;;;5.20;2.22;;;14.70;99.90;;;;;;5052288;28;20053;-76
2022/11/07 05:42:39;;;;;;;7.55;2.83;;;14.70;99.90;;;;;;5052596;28;20052;-76
2022/11/07 05:45:07;;;;;;;7.32;3.35;;;14.80;99.90;;;;;;5070121;28;20052;-75
2022/11/07 05:47:35;;;;;;;5.63;2.30;;;14.90;99.90;;;;;;5035070;28;20534;-76
2022/11/07 05:50:02;;;;;;;8.02;2.53;;;15.00;99.90;;;;;;5070044;28;20048;-76
2022/11/07 05:52:31;;;;;;;6.05;3.38;;;15.20;99.90;;;;;;5052758;28;20372;-76
2022/11/07 05:54:58;;;;;;;7.32;2.08;;;15.40;99.90;;;;;;5068935;28;20040;-76
2022/11/07 05:57:29;;;;;;;6.05;2.78;;;15.60;99.90;;;;;;5069193;28;20060;-76
2022/11/07 05:59:56;;;;;;;5.20;3.05;;;15.80;99.90;;;;;;5068735;28;20060;-75
2022/11/07 06:02:24;;;;;;;4.82;2.35;;;16.10;99.90;;;;;;5069887;28;20048;-76
2022/11/07 06:04:51;;;;;;;8.93;3.50;;;16.40;99.90;;;;;;5051911;28;20144;-76
2022/11/07 06:07:19;;;;;;;5.88;3.10;;;16.80;99.90;;;;;;5068688;28;20049;-76
2022/11/07 06:09:46;;;;;;;6.43;2.67;;;17.30;99.90;;;;;;5070334;28;20372;-75
2022/11/07 06:12:14;;;;;;;7.80;3.00;;;17.60;99.90;;;;;;5068401;28;20044;-76
2022/11/07 06:14:41;;;;;;;5.55;3.03;;;18.10;99.90;;;;;;5035352;28;20078;-76
2022/11/07 06:17:09;;;;;;;6.15;3.03;;;18.60;99.90;;;;;;5054657;28;20056;-76
2022/11/07 06:19:36;;;;;;;5.47;3.10;;;19.00;99.90;;;;;;5048476;28;20040;-75
2022/11/07 06:22:04;;;;;;;4.90;1.90;;;19.50;99.90;;;;;;5031558;28;20052;-76
2022/11/07 06:24:31;;;;;;;8.13;2.35;;;20.00;99.90;;;;;;5049643;28;20053;-76
2022/11/07 06:26:59;;;;;;;21.83;3.67;;;20.40;99.90;;;;;;5015084;28;20106;-75
2022/11/07 06:29:27;;;;;;;5.78;2.47;;;21.00;99.90;;;;;;5048265;28;20098;-75
2022/11/07 06:31:54;;;;;;;6.72;3.00;;;21.60;99.90;;;;;;5031543;28;20456;-74
2022/11/07 06:34:22;;;;;;;5.07;2.63;;;22.10;99.90;;;;;;5015366;28;20107;-75
2022/11/07 06:36:54;;;;;;;7.40;2.42;;;22.70;99.90;;;;;;5048288;28;20053;-75
2022/11/07 06:39:26;;;;;;;;;;;23.20;99.90;;;;;;5031698;28;20057;-75
2022/11/07 06:41:53;;;;;;;6.55;2.25;;;23.70;99.90;;;;;;5048084;28;20370;-76
2022/11/07 06:44:21;;;;;;;8.32;2.50;;;24.00;99.90;;;;;;5031513;28;20080;-76
2022/11/07 06:46:48;;;;;;;8.73;2.42;;;24.30;99.90;;;;;;5031407;28;20128;-75
2022/11/07 06:49:16;;;;;;;5.63;2.58;;;24.40;99.90;;;;;;5047972;28;20045;-76
2022/11/07 06:51:43;;;;;;;5.90;2.50;;;24.40;99.90;;;;;;5031804;28;20076;-75
2022/11/07 06:54:13;;;;;;;4.93;3.28;;;24.30;99.90;;;;;;5047741;28;20044;-75
2022/11/07 06:56:40;;;;;;;4.05;2.45;;;24.20;99.90;;;;;;5031990;28;20043;-75
2022/11/07 06:59:08;;;;;;;7.88;2.33;;;23.90;99.90;;;;;;5048062;28;20045;-75
2022/11/07 07:01:35;;;;;;;6.15;3.45;;;23.70;99.90;;;;;;5048325;28;20048;-75
2022/11/07 07:04:04;;;;;;;4.43;2.22;;;23.40;99.90;;;;;;5054930;28;20047;-75
2022/11/07 07:06:31;;;;;;;4.38;2.10;;;23.20;99.90;;;;;;5067915;28;20509;-75
2022/11/07 07:08:59;;;;;;;8.13;2.97;;;23.10;99.90;;;;;;5051284;28;20383;-75
2022/11/07 07:11:26;;;;;;;5.13;2.33;;;23.00;99.90;;;;;;5067656;28;20516;-76
2022/11/07 07:13:55;;;;;;;4.65;2.45;;;23.00;99.90;;;;;;5068978;28;20044;-75
2022/11/07 07:16:28;;;;;;;8.30;2.53;;;23.00;99.90;;;;;;5067681;28;20127;-76
2022/11/07 07:18:55;;;;;;;7.50;2.30;;;23.00;99.90;;;;;;5051166;28;20056;-75
2022/11/07 07:21:23;;;;;;;4.10;2.30;;;23.00;99.90;;;;;;5067442;28;20059;-74
2022/11/07 07:23:51;;;;;;;6.05;2.58;;;23.10;99.90;;;;;;5034933;28;20044;-75
2022/11/07 07:26:19;;;;;;;5.13;2.30;;;23.20;99.90;;;;;;5050654;28;20742;-75
2022/11/07 07:28:48;;;;;;;6.03;2.40;;;23.30;99.90;;;;;;5034348;28;20432;-75
2022/11/07 07:31:15;;;;;;;4.90;2.10;;;23.30;99.90;;;;;;5050799;28;20079;-71
2022/11/07 07:33:44;;;;;;;3.83;1.95;;;23.20;99.90;;;;;;5050462;28;20439;-73
2022/11/07 07:36:13;;;;;;;3.95;2.50;;;23.20;99.90;;;;;;5066910;28;20049;-72
2022/11/07 07:38:44;;;;;;;6.93;2.40;;;22.90;99.90;;;;;;5051761;28;20133;-73
2022/11/07 07:41:11;;;;;;;9.90;2.55;;;22.70;99.90;;;;;;5050036;28;20048;-73
2022/11/07 07:43:39;;;;;;;4.80;2.03;;;22.50;99.90;;;;;;5047313;28;20051;-73
2022/11/07 07:46:09;;;;;;;13.70;2.80;;;22.40;99.90;;;;;;5030501;28;20458;-73
2022/11/07 07:48:37;;;;;;;5.05;2.40;;;22.30;99.90;;;;;;5047406;28;20160;-72
2022/11/07 07:51:05;;;;;;;9.20;2.47;;;22.20;99.90;;;;;;5046990;28;20065;-72
2022/11/07 07:53:32;;;;;;;5.68;2.60;;;22.10;99.90;;;;;;5055541;28;20439;-72
2022/11/07 07:56:04;;;;;;;5.47;2.13;;;21.90;99.90;;;;;;5067250;28;20355;-73
2022/11/07 07:58:32;;;;;;;11.95;3.38;;;21.90;99.90;;;;;;5066679;28;20521;-72
2022/11/07 08:01:00;;;;;;;4.95;2.58;;;21.90;99.90;;;;;;5033505;28;20478;-72
2022/11/07 08:03:28;;;;;;;5.40;2.40;;;21.90;99.90;;;;;;5067322;28;20045;-73
2022/11/07 08:06:06;;;;;;;5.75;2.60;;;22.00;99.90;;;;;;5051823;28;20110;-74
2022/11/07 08:08:33;;;;;;;6.35;2.30;;;22.00;99.90;;;;;;5045862;28;20045;-72
2022/11/07 08:11:06;;;;;;;10.00;3.40;;;21.60;99.90;;;;;;5057494;28;20152;-72
2022/11/07 08:13:35;;;;;;;11.90;2.60;;;21.50;99.90;;;;;;5053291;28;20491;-74
2022/11/07 08:16:06;;;;;;;8.77;3.53;;;21.60;99.90;;;;;;5051992;28;20068;-73
2022/11/07 08:18:35;;;;;;;5.10;2.10;;;21.50;99.90;;;;;;5030891;28;20110;-73
2022/11/07 08:21:03;;;;;;;5.00;2.30;;;21.50;99.90;;;;;;5051750;28;20552;-72
2022/11/07 08:23:30;;;;;;;5.07;2.20;;;21.50;99.90;;;;;;5055648;28;20128;-73
2022/11/07 08:26:01;;;;;;;6.28;2.55;;;21.40;99.90;;;;;;5055149;28;20041;-73
2022/11/07 08:28:31;;;;;;;5.47;2.10;;;21.60;99.90;;;;;;5030189;28;20056;-73
2022/11/07 08:31:05;;;;;;;8.32;2.70;;;21.80;99.90;;;;;;5047044;28;20464;-72
2022/11/07 08:33:33;;;;;;;7.20;2.25;;;21.90;99.90;;;;;;5030471;28;20075;-72
2022/11/07 08:36:03;;;;;;;9.30;3.05;;;22.00;99.90;;;;;;5046915;28;20515;-73
2022/11/07 08:38:33;;;;;;;4.78;2.10;;;22.30;99.90;;;;;;5046925;28;20049;-73
2022/11/07 08:41:01;;;;;;;3.85;2.25;;;22.40;99.90;;;;;;5030037;28;20060;-74
2022/11/07 08:43:28;;;;;;;7.63;2.55;;;22.50;99.90;;;;;;5047279;28;20143;-73
2022/11/07 08:45:56;;;;;;;6.93;2.22;;;22.60;99.90;;;;;;5046765;28;20045;-73
2022/11/07 08:48:24;;;;;;;7.05;2.50;;;22.70;99.90;;;;;;5053275;28;20045;-73
2022/11/07 08:50:56;;;;;;;5.70;2.60;;;22.80;99.90;;;;;;5053588;28;20162;-73
2022/11/07 08:53:25;;;;;;;8.57;2.90;;;23.00;99.90;;;;;;5030511;28;20167;-72
2022/11/07 08:56:03;;;;;;;4.68;2.60;;;23.10;99.90;;;;;;5065983;28;20154;-72
2022/11/07 08:58:32;;;;;;;6.15;2.47;;;23.20;99.90;;;;;;5033540;28;20052;-73
2022/11/07 09:00:59;;;;;;;6.20;2.97;;;23.20;99.90;;;;;;5046924;28;20037;-74
2022/11/07 09:03:27;;;;;;;7.38;2.47;;;23.00;99.90;;;;;;5064158;28;20048;-74
2022/11/07 09:06:12;;;;;;;4.68;2.25;;;23.20;99.90;;;;;;5059245;28;20498;-75
2022/11/07 09:08:40;;;;;;;4.40;2.30;;;23.40;99.90;;;;;;5026969;28;20052;-72
2022/11/07 09:11:07;;;;;;;11.82;3.05;;;23.50;99.90;;;;;;5067670;28;20052;-72
2022/11/07 09:13:35;;;;;;;5.05;2.03;;;23.60;99.90;;;;;;5068666;28;20040;-73
2022/11/07 09:16:04;;;;;;;6.55;2.35;;;23.70;99.90;;;;;;5036330;28;20503;-72
2022/11/07 09:18:32;;;;;;;4.75;1.75;;;23.50;99.90;;;;;;5056056;28;20079;-72
2022/11/07 09:20:59;;;;;;;4.57;2.00;;;23.70;99.90;;;;;;5066695;28;20075;-73
2022/11/07 09:23:27;;;;;;;4.65;2.58;;;23.50;99.90;;;;;;5049024;28;20041;-72
2022/11/07 09:25:59;;;;;;;9.75;2.70;;;23.60;99.90;;;;;;5065681;28;20490;-72
2022/11/07 09:28:26;;;;;;;3.47;2.20;;;23.50;99.90;;;;;;5067344;28;20036;-72
2022/11/07 09:30:57;;;;;;;6.88;3.25;;;23.40;99.90;;;;;;5069848;28;20043;-72
2022/11/07 09:33:25;;;;;;;4.30;2.20;;;23.20;99.90;;;;;;5069890;28;20055;-73
2022/11/07 09:35:54;;;;;;;4.95;1.95;;;23.10;99.90;;;;;;5050120;28;20081;-72
2022/11/07 09:38:21;;;;;;;7.20;2.60;;;23.00;99.90;;;;;;5068457;28;20056;-73
2022/11/07 09:41:11;;;;;;;4.05;2.22;;;22.90;99.90;;;;;;5050838;28;20048;-73
2022/11/07 09:44:00;;;;;;;6.43;2.30;;;23.20;99.90;;;;;;5050483;28;20056;-74
2022/11/07 09:47:15;;;;;;;8.15;3.13;;;23.30;99.90;;;;;;5049097;28;20059;-72
2022/11/07 09:49:47;;;;;;;4.25;1.70;;;23.10;99.90;;;;;;5051079;28;20068;-73
2022/11/07 09:53:06;;;;;;;6.22;2.58;;;23.20;99.90;;;;;;5032544;28;20052;-72
2022/11/07 09:55:42;;;;;;;5.53;2.42;;;23.60;99.90;;;;;;4972431;28;20054;-74
2022/11/07 09:58:19;;;;;;;5.85;2.25;;;23.80;99.90;;;;;;4979758;28;20046;-72
2022/11/07 10:00:47;;;;;;;9.55;2.10;;;24.00;99.90;;;;;;5041053;28;20050;-73
2022/11/07 10:03:14;;;;;;;5.47;2.10;;;23.80;99.90;;;;;;5068398;28;20131;-73
2022/11/07 10:06:03;;;;;;;8.02;2.00;;;23.90;99.90;;;;;;5069854;28;20089;-72
2022/11/07 10:09:07;;;;;;;6.45;2.10;;;24.00;99.90;;;;;;5065690;28;20143;-73
2022/11/07 10:11:57;;;;;;;4.80;1.90;;;23.70;99.90;;;;;;5044135;28;20037;-74
2022/11/07 10:14:33;;;;;;;3.60;2.00;;;23.60;99.90;;;;;;5048341;28;20098;-72
2022/11/07 10:17:33;;;;;;;4.28;1.80;;;23.60;99.90;;;;;;5066954;28;20033;-73
2022/11/07 10:20:36;;;;;;;5.63;2.35;;;23.60;99.90;;;;;;5068324;28;20582;-73
2022/11/07 10:23:39;;;;;;;5.32;1.52;;;23.40;99.90;;;;;;5042765;28;20041;-72
2022/11/07 10:26:11;;;;;;;4.53;2.28;;;23.40;99.90;;;;;;5055670;28;20048;-73
2022/11/07 10:29:18;;;;;;;7.47;2.55;;;23.60;99.90;;;;;;5065235;28;20402;-72
2022/11/07 10:31:53;;;;;;;4.95;2.38;;;23.90;99.90;;;;;;5049513;28;20474;-73
2022/11/07 10:34:43;;;;;;;6.57;2.70;;;24.00;99.90;;;;;;5046987;28;20514;-73
2022/11/07 10:37:10;;;;;;;5.45;1.70;;;23.80;99.90;;;;;;5033924;28;20394;-72
2022/11/07 10:39:38;;;;;;;2.80;1.67;;;23.50;99.90;;;;;;5036752;28;20048;-72
2022/11/07 10:42:14;;;;;;;10.45;2.47;;;23.00;99.90;;;;;;5033641;28;20083;-73
2022/11/07 10:44:42;;;;;;;3.97;2.13;;;22.50;99.90;;;;;;5061174;28;20075;-73
2022/11/07 10:47:19;;;;;;;4.10;2.13;;;22.10;99.90;;;;;;5050380;28;20056;-73
2022/11/07 10:49:58;;;;;;;4.28;2.28;;;21.80;99.90;;;;;;5063697;28;20041;-73
2022/11/07 10:52:27;;;;;;;5.35;2.60;;;21.60;99.90;;;;;;5059619;28;20047;-73
2022/11/07 10:55:14;;;;;;;7.45;3.40;;;21.50;99.90;;;;;;5061350;28;20067;-72
2022/11/07 10:57:45;;;;;;;2.55;1.60;;;21.40;99.90;;;;;;5075749;28;20147;-73
2022/11/07 11:00:29;;;;;;;5.38;2.50;;;21.60;99.90;;;;;;5035500;28;20036;-74
2022/11/07 11:02:58;;;;;;;3.55;1.73;;;21.80;99.90;;;;;;5044506;28;20055;-74
2022/11/07 11:05:32;;;;;;;7.75;2.88;;;22.10;99.90;;;;;;5047506;28;20041;-72
2022/11/07 11:08:15;;;;;;;4.28;1.88;;;22.20;99.90;;;;;;5046993;28;20055;-73
2022/11/07 11:10:43;;;;;;;4.57;1.70;;;22.10;99.90;;;;;;5031639;28;20052;-73
2022/11/07 11:13:33;;;;;;;5.05;2.05;;;22.10;99.90;;;;;;5063975;28;20300;-72
2022/11/07 11:16:13;;;;;;;4.47;2.45;;;22.00;99.90;;;;;;5056197;28;20036;-73
2022/11/07 11:18:52;;;;;;;4.50;1.98;;;21.90;99.90;;;;;;5030919;28;20059;-74
2022/11/07 11:21:20;;;;;;;8.30;2.10;;;21.90;99.90;;;;;;5053930;28;20048;-72
2022/11/07 11:23:48;;;;;;;7.07;2.67;;;21.70;99.90;;;;;;5043969;28;20048;-73
2022/11/07 11:26:25;;;;;;;4.93;1.77;;;21.60;99.90;;;;;;5061067;28;20045;-74
2022/11/07 11:29:08;;;;;;;4.30;1.80;;;21.60;99.90;;;;;;5047984;28;20052;-74
2022/11/07 11:31:49;;;;;;;7.40;3.67;;;21.80;99.90;;;;;;5057285;28;20387;-73
2022/11/07 11:34:33;;;;;;;3.58;1.80;;;22.00;99.90;;;;;;5061295;28;20032;-73
2022/11/07 11:37:14;;;;;;;4.97;2.22;;;22.10;99.90;;;;;;5046583;28;20515;-73
2022/11/07 11:39:46;;;;;;;4.90;2.53;;;22.10;99.90;;;;;;5028102;28;20413;-73
2022/11/07 11:42:48;;;;;;;4.30;1.73;;;21.80;99.90;;;;;;5046303;28;20057;-73
2022/11/07 11:45:34;;;;;;;7.07;1.83;;;21.80;99.90;;;;;;5038605;28;20067;-73
2022/11/07 11:48:22;;;;;;;4.40;2.43;;;21.60;99.90;;;;;;5048341;28;20333;-73
2022/11/07 11:50:58;;;;;;;5.13;2.17;;;21.50;99.90;;;;;;5046771;28;20303;-73
2022/11/07 11:53:27;;;;;;;3.60;2.25;;;21.30;99.90;;;;;;5052557;28;20067;-74
2022/11/07 11:56:10;;;;;;;4.32;2.55;;;21.10;99.90;;;;;;5060298;28;20064;-73
2022/11/07 11:58:52;;;;;;;4.45;2.33;;;21.20;99.90;;;;;;5050222;28;20113;-73
2022/11/07 12:01:39;;;;;;;3.10;1.92;;;21.30;99.90;;;;;;5058390;28;20411;-73
2022/11/07 12:04:34;;;;;;;12.30;2.90;;;21.40;99.90;;;;;;5042842;28;20170;-72
2022/11/07 12:07:30;;;;;;;5.28;2.40;;;21.50;99.90;;;;;;5066650;28;20099;-73
2022/11/07 12:10:50;;;;;;;3.23;1.70;;;21.70;99.90;;;;;;5048061;28;20067;-76
2022/11/07 12:13:27;;;;;;;5.68;2.03;;;21.90;99.90;;;;;;5013398;28;20053;-73
2022/11/07 12:16:36;;;;;;;3.78;2.67;;;21.80;99.90;;;;;;5066317;28;20044;-74
2022/11/07 12:19:12;;;;;;;5.30;2.10;;;21.70;99.90;;;;;;5029292;28;20083;-73
2022/11/07 12:22:06;;;;;;;5.57;2.80;;;21.50;99.90;;;;;;5033480;28;20067;-73
2022/11/07 12:24:49;;;;;;;4.72;2.20;;;21.30;99.90;;;;;;5032865;28;20048;-74
2022/11/07 12:27:23;;;;;;;3.53;2.20;;;21.30;99.90;;;;;;5049091;28;20141;-73
2022/11/07 12:29:52;;;;;;;;;;;21.20;99.90;;;;;;5049759;28;20045;-72
2022/11/07 12:32:46;;;;;;;4.40;2.15;;;21.20;99.90;;;;;;5047214;28;19985;-73
2022/11/07 12:35:25;;;;;;;2.92;1.67;;;21.10;99.90;;;;;;5061475;28;20102;-72
2022/11/07 12:37:56;;;;;;;3.10;2.33;;;21.20;99.90;;;;;;5047974;28;20048;-73
2022/11/07 12:40:42;;;;;;;4.13;1.92;;;21.30;99.90;;;;;;5048586;28;20124;-73
2022/11/07 12:43:24;;;;;;;5.80;2.10;;;21.40;99.90;;;;;;5063059;28;20055;-72
2022/11/07 12:45:57;;;;;;;2.70;1.70;;;21.20;99.90;;;;;;5065549;28;20037;-72
2022/11/07 12:48:40;;;;;;;4.97;3.20;;;21.20;99.90;;;;;;5032008;28;20135;-73
2022/11/07 12:51:34;;;;;;;5.30;2.60;;;21.00;99.90;;;;;;5052070;28;20510;-73
2022/11/07 12:54:17;;;;;;;2.72;1.92;;;21.00;99.90;;;;;;5053015;28;20068;-74
2022/11/07 12:56:47;;;;;;;3.85;1.92;;;21.10;99.90;;;;;;5069089;28;20071;-72
2022/11/07 12:59:43;;;;;;;3.13;1.98;;;21.10;99.90;;;;;;5035313;28;20076;-72
2022/11/07 13:02:43;;;;;;;3.63;2.35;;;21.20;99.90;;;;;;5064735;28;20478;-72
2022/11/07 13:05:47;;;;;;;3.75;2.22;;;21.20;99.90;;;;;;5067702;28;20540;-72
2022/11/07 13:09:03;;;;;;;5.72;2.80;;;21.20;99.90;;;;;;5058440;28;20649;-72
2022/11/07 13:12:15;;;;;;;4.82;2.30;;;21.00;99.90;;;;;;5011331;28;20126;-73
2022/11/07 13:14:44;;;;;;;7.93;2.10;;;21.10;99.90;;;;;;5050884;28;20051;-73
2022/11/07 13:17:22;;;;;;;5.03;2.30;;;20.90;99.90;;;;;;5063401;28;20052;-73
2022/11/07 13:20:00;;;;;;;4.30;2.55;;;20.90;99.90;;;;;;5051355;28;20102;-73
2022/11/07 13:22:39;;;;;;;3.85;2.03;;;20.90;99.90;;;;;;5063264;28;20152;-73
2022/11/07 13:25:23;;;;;;;4.03;2.42;;;20.90;99.90;;;;;;5052132;28;20228;-72
2022/11/07 13:27:57;;;;;;;4.65;2.00;;;20.90;99.90;;;;;;5064288;28;20403;-72
2022/11/07 13:30:39;;;;;;;6.57;2.30;;;20.90;99.90;;;;;;5049921;28;20049;-73
2022/11/07 13:33:24;;;;;;;3.72;1.90;;;20.90;99.90;;;;;;5044852;28;20114;-74